ADDS METAR Data INFO
IDs: Format: Raw Decoded Include TAF

Data at: 0019 UTC 11 Dec 2017

KBQX 110015Z AUTO 00000KT 10SM SCT049 15/01 A3040 RMK A01
KBQX 102355Z AUTO 28003KT 10SM CLR 15/01 A3039 RMK A01
KBQX 102335Z AUTO 28004KT 10SM CLR 15/01 A3039 RMK A01
KBQX 102315Z AUTO 31004KT 10SM CLR 16/01 A3039 RMK A01
KBQX 102255Z AUTO VRB03KT 10SM CLR 16/01 A3040 RMK A01
KBQX 102235Z AUTO 32003KT 10SM CLR 16/00 A3039 RMK A01
KBQX 102215Z AUTO 34004KT 9SM CLR 16/00 A3039 RMK A01
KBQX 102155Z AUTO 34005KT CLR 16/00 A3039 RMK A01
KBQX 102135Z AUTO 34005KT 10SM CLR 16/00 A3039 RMK A01
KBQX 102115Z AUTO 33006KT 10SM CLR 16/M00 A3040 RMK A01
KBQX 102055Z AUTO 34005KT 10SM CLR 16/01 A3040 RMK A01
KBQX 102035Z AUTO 34006KT 10SM CLR 16/02 A3040 RMK A01
KBQX 102015Z AUTO 36004KT 10SM CLR 16/02 A3040 RMK A01
KBQX 101955Z AUTO 01003KT 10SM CLR 16/02 A3040 RMK A01
KBQX 101935Z AUTO 01007KT 10SM CLR 16/03 A3041 RMK A01
KBQX 101915Z AUTO 01007KT 10SM CLR 15/04 A3042 RMK A01
KBQX 101855Z AUTO 01007KT 10SM CLR 15/05 A3042 RMK A01
KBQX 101835Z AUTO 01009KT 10SM CLR 15/06 A3043 RMK A01
KBQX 101815Z AUTO 02008KT 10SM CLR 15/07 A3044 RMK A01
KBQX 101755Z AUTO 02008KT 10SM CLR 15/06 A3045 RMK A01
KBQX 101735Z AUTO 01008KT 10SM CLR 15/05 A3045 RMK A01
KBQX 101715Z AUTO 03004KT 10SM CLR 15/05 A3045 RMK A01
KBQX 101655Z AUTO 03005KT 10SM CLR 15/06 A3045 RMK A01
KBQX 101635Z AUTO 03006KT 10SM CLR 15/06 A3045 RMK A01
KBQX 101615Z AUTO 04007KT 10SM CLR 15/06 A3045 RMK A01
KBQX 101555Z AUTO 04007KT 10SM CLR 15/06 A3045 RMK A01
KBQX 101535Z AUTO 04009KT 10SM CLR 15/05 A3045 RMK A01
KBQX 101515Z AUTO 03009KT 10SM CLR 15/06 A3044 RMK A01
KBQX 101455Z AUTO 04008KT 10SM CLR 15/05 A3044 RMK A01
KBQX 101435Z AUTO 04010KT 9SM CLR 15/06 A3044 RMK A01
KBQX 101415Z AUTO 02010KT 9SM CLR 14/06 A3043 RMK A01
KBQX 101355Z AUTO 03012KT 10SM CLR 14/05 A3043 RMK A01
KBQX 101335Z AUTO 03011KT 10SM CLR 15/05 A3042 RMK A01
KBQX 101315Z AUTO 03010KT 10SM CLR 14/04 A3041 RMK A01
KBQX 101255Z AUTO 02011KT 10SM CLR 14/05 A3041 RMK A01
KBQX 101235Z AUTO 02010KT 10SM CLR 14/05 A3040 RMK A01
KBQX 101215Z AUTO 02013KT 10SM CLR 14/05 A3040 RMK A01
KBQX 101155Z AUTO 02012KT 10SM CLR 14/05 A3039 RMK A01
KBQX 101135Z AUTO 02014KT 10SM CLR 14/05 A3038 RMK A01
KBQX 101115Z AUTO 02014KT 10SM CLR 14/05 A3037 RMK A01
KBQX 101055Z AUTO 02014KT 10SM CLR 14/04 A3036 RMK A01
KBQX 101035Z AUTO 02015KT 10SM CLR 14/04 A3036 RMK A01
KBQX 101015Z AUTO 36015KT 10SM CLR 14/04 A3037 RMK A01
KBQX 100955Z AUTO 35014KT 10SM CLR 14/03 A3038 RMK A01
KBQX 100935Z AUTO 35015KT 10SM CLR 15/04 A3038 RMK A01
KBQX 100915Z AUTO 34012KT 10SM CLR 15/03 A3039 RMK A01
KBQX 100855Z AUTO 36013KT 10SM CLR 15/02 A3038 RMK A01
KBQX 100835Z AUTO 36013KT 10SM CLR 15/01 A3037 RMK A01
KBQX 100815Z AUTO 36012KT 10SM CLR 15/02 A3036 RMK A01
KBQX 100755Z AUTO 01012KT 10SM CLR 16/01 A3035 RMK A01
KBQX 100735Z AUTO 36012KT 10SM CLR 16/01 A3036 RMK A01
KBQX 100715Z AUTO 36008KT 10SM CLR 16/01 A3036 RMK A01
KBQX 100655Z AUTO 35008KT 10SM CLR 16/01 A3037 RMK A01
KBQX 100635Z AUTO 36008KT 10SM CLR 16/02 A3037 RMK A01
KBQX 100615Z AUTO 35008KT 10SM CLR 16/01 A3038 RMK A01
KBQX 100555Z AUTO 36008KT 10SM CLR 16/01 A3037 RMK A01
KBQX 100535Z AUTO 36008KT 10SM CLR 16/01 A3037 RMK A01
KBQX 100515Z AUTO 01008KT 10SM CLR 16/01 A3036 RMK A01
KBQX 100455Z AUTO 02010KT 10SM CLR 16/01 A3036 RMK A01
KBQX 100435Z AUTO 01009KT 10SM CLR 16/02 A3036 RMK A01
KBQX 100415Z AUTO 01010KT 10SM CLR 16/02 A3035 RMK A01
KBQX 100355Z AUTO 02011KT 10SM CLR 16/01 A3034 RMK A01
KBQX 100335Z AUTO 01010KT 10SM CLR 16/02 A3034 RMK A01
KBQX 100315Z AUTO 02011KT 10SM CLR 16/02 A3034 RMK A01
KBQX 100255Z AUTO 01011KT 10SM CLR 16/02 A3034 RMK A01
KBQX 100235Z AUTO 01013KT 10SM CLR 16/01 A3033 RMK A01
KBQX 100215Z AUTO 36013KT 10SM CLR 16/01 A3033 RMK A01
KBQX 100155Z AUTO 35013KT 10SM CLR 16/01 A3033 RMK A01
KBQX 100135Z AUTO 35014KT 10SM CLR 15/03 A3032 RMK A01
KBQX 100115Z AUTO 34015KT 10SM CLR 15/02 A3031 RMK A01
KBQX 100055Z AUTO 34016KT 10SM CLR 15/02 A3030 RMK A01
KBQX 100035Z AUTO 33015G20KT 10SM CLR 15/03 A3030 RMK A01
KBQX 100015Z AUTO 33015KT 10SM CLR 15/02 A3029 RMK A01
KBQX 092355Z AUTO 34015KT 10SM CLR 15/02 A3029 RMK A01
KBQX 092335Z AUTO 32011KT 10SM CLR 15/04 A3028 RMK A01
KBQX 092315Z AUTO 32013KT 10SM CLR 15/04 A3027 RMK A01
KBQX 092255Z AUTO 33014KT 10SM CLR 15/04 A3026 RMK A01
KBQX 092235Z AUTO 33014KT 10SM CLR 15/05 A3025 RMK A01
KBQX 092215Z AUTO 34012KT 10SM CLR 15/05 A3025 RMK A01
KBQX 092155Z AUTO 33013KT 10SM CLR 15/05 A3024 RMK A01
KBQX 092135Z AUTO 33014KT 10SM CLR 14/05 A3024 RMK A01
KBQX 092115Z AUTO 33014KT 10SM CLR 14/05 A3024 RMK A01
KBQX 092055Z AUTO 33012KT 10SM CLR 14/05 A3025 RMK A01
KBQX 092035Z AUTO 32012KT 10SM CLR 13/06 A3025 RMK A01
KBQX 092015Z AUTO 32014KT 10SM CLR 13/05 A3025 RMK A01
KBQX 091955Z AUTO 33011KT 10SM CLR 13/05 A3025 RMK A01
KBQX 091935Z AUTO 33011KT 10SM CLR 13/05 A3025 RMK A01
KBQX 091915Z AUTO 34009KT 10SM CLR 13/06 A3025 RMK A01
KBQX 091855Z AUTO 32007KT 10SM CLR 13/06 A3026 RMK A01
KBQX 091835Z AUTO 34008KT 10SM CLR 13/06 A3026 RMK A01
KBQX 091815Z AUTO 33008KT 10SM CLR 12/05 A3027 RMK A01
KBQX 091755Z AUTO 33008KT 10SM CLR 12/05 A3028 RMK A01
KBQX 091735Z AUTO 33008KT 10SM CLR 12/06 A3029 RMK A01
KBQX 091715Z AUTO 32010KT 10SM CLR 11/05 A3029 RMK A01
KBQX 091655Z AUTO 33012KT 10SM CLR 11/05 A3029 RMK A01
KBQX 091635Z AUTO 32013KT 10SM CLR 11/05 A3029 RMK A01
KBQX 091615Z AUTO 32014KT 10SM CLR 12/05 A3029 RMK A01
KBQX 091555Z AUTO 32014KT 10SM CLR 12/06 A3028 RMK A01
KBQX 091535Z AUTO 32012KT 10SM CLR 12/06 A3028 RMK A01
KBQX 091515Z AUTO 30013KT 10SM CLR 12/06 A3028 RMK A01
KBQX 091455Z AUTO 31010KT 10SM CLR 12/06 A3027 RMK A01
KBQX 091435Z AUTO 32010KT 10SM CLR 12/05 A3026 RMK A01
KBQX 091415Z AUTO 32011KT 10SM CLR 12/05 A3026 RMK A01
KBQX 091355Z AUTO 31011KT 10SM CLR 12/05 A3025 RMK A01
KBQX 091335Z AUTO 31013KT 10SM CLR 12/05 A3025 RMK A01
KBQX 091315Z AUTO 32014KT 10SM CLR 11/05 A3024 RMK A01
KBQX 091255Z AUTO 32013KT 10SM CLR 12/05 A3024 RMK A01
KBQX 091235Z AUTO 32014KT 10SM CLR 12/05 A3023 RMK A01